sensor_id;sensor_type;location;lat;lon;timestamp;pressure;altitude;pressure_sealevel;temperature;humidity
8229;BME280;4155;50.118;8.714;2022-08-02T00:01:19;100343.41;;;21.02;68.74
8229;BME280;4155;50.118;8.714;2022-08-02T00:03:47;100328.50;;;21.10;68.33
8229;BME280;4155;50.118;8.714;2022-08-02T00:06:15;100336.06;;;21.03;68.72
8229;BME280;4155;50.118;8.714;2022-08-02T00:08:43;100327.88;;;21.03;68.84
8229;BME280;4155;50.118;8.714;2022-08-02T00:11:11;100330.72;;;20.86;69.25
8229;BME280;4155;50.118;8.714;2022-08-02T00:13:38;100321.59;;;21.02;69.31
8229;BME280;4155;50.118;8.714;2022-08-02T00:16:08;100322.75;;;21.06;68.84
8229;BME280;4155;50.118;8.714;2022-08-02T00:18:42;100311.47;;;20.98;69.38
8229;BME280;4155;50.118;8.714;2022-08-02T00:21:10;100317.66;;;20.88;69.61
8229;BME280;4155;50.118;8.714;2022-08-02T00:23:39;100313.81;;;20.84;69.85
8229;BME280;4155;50.118;8.714;2022-08-02T00:26:27;100311.47;;;20.71;69.84
8229;BME280;4155;50.118;8.714;2022-08-02T00:28:54;100317.88;;;20.60;70.39
8229;BME280;4155;50.118;8.714;2022-08-02T00:31:23;100309.53;;;20.44;70.77
8229;BME280;4155;50.118;8.714;2022-08-02T00:33:51;100315.25;;;20.43;71.45
8229;BME280;4155;50.118;8.714;2022-08-02T00:36:38;100317.75;;;20.49;71.37
8229;BME280;4155;50.118;8.714;2022-08-02T00:39:06;100320.75;;;20.48;71.29
8229;BME280;4155;50.118;8.714;2022-08-02T00:41:53;100324.41;;;20.59;70.79
8229;BME280;4155;50.118;8.714;2022-08-02T00:44:21;100320.69;;;20.65;70.37
8229;BME280;4155;50.118;8.714;2022-08-02T00:46:50;100335.72;;;20.72;69.82
8229;BME280;4155;50.118;8.714;2022-08-02T00:49:18;100335.56;;;20.57;70.07
8229;BME280;4155;50.118;8.714;2022-08-02T00:51:46;100332.41;;;20.43;70.70
8229;BME280;4155;50.118;8.714;2022-08-02T00:54:14;100333.38;;;20.54;70.46
8229;BME280;4155;50.118;8.714;2022-08-02T00:56:42;100327.59;;;20.50;70.74
8229;BME280;4155;50.118;8.714;2022-08-02T00:59:15;100332.97;;;20.45;70.67
8229;BME280;4155;50.118;8.714;2022-08-02T01:01:43;100333.34;;;20.32;71.21
8229;BME280;4155;50.118;8.714;2022-08-02T01:04:25;100340.28;;;20.23;71.74
8229;BME280;4155;50.118;8.714;2022-08-02T01:06:57;100340.56;;;20.21;71.80
8229;BME280;4155;50.118;8.714;2022-08-02T01:09:25;100343.34;;;20.27;71.59
8229;BME280;4155;50.118;8.714;2022-08-02T01:11:53;100339.72;;;20.21;71.56
8229;BME280;4155;50.118;8.714;2022-08-02T01:14:21;100337.56;;;20.23;71.63
8229;BME280;4155;50.118;8.714;2022-08-02T01:16:53;100331.22;;;20.17;72.22
8229;BME280;4155;50.118;8.714;2022-08-02T01:19:36;100340.41;;;20.11;71.93
8229;BME280;4155;50.118;8.714;2022-08-02T01:22:15;100340.41;;;20.11;71.67
8229;BME280;4155;50.118;8.714;2022-08-02T01:25:03;100338.13;;;20.25;71.76
8229;BME280;4155;50.118;8.714;2022-08-02T01:27:45;100336.94;;;20.16;71.64
8229;BME280;4155;50.118;8.714;2022-08-02T01:30:17;100324.38;;;20.15;71.98
8229;BME280;4155;50.118;8.714;2022-08-02T01:32:49;100329.19;;;20.08;72.13
8229;BME280;4155;50.118;8.714;2022-08-02T01:35:23;100331.44;;;20.11;72.03
8229;BME280;4155;50.118;8.714;2022-08-02T01:37:57;100322.34;;;20.05;71.64
8229;BME280;4155;50.118;8.714;2022-08-02T01:40:29;100320.41;;;20.01;71.94
8229;BME280;4155;50.118;8.714;2022-08-02T01:42:58;100319.75;;;19.93;72.81
8229;BME280;4155;50.118;8.714;2022-08-02T01:45:29;100314.25;;;19.88;72.39
8229;BME280;4155;50.118;8.714;2022-08-02T01:48:00;100320.97;;;19.86;73.06
8229;BME280;4155;50.118;8.714;2022-08-02T01:50:31;100317.69;;;19.84;73.22
8229;BME280;4155;50.118;8.714;2022-08-02T01:53:04;100317.63;;;19.79;73.51
8229;BME280;4155;50.118;8.714;2022-08-02T01:55:37;100323.41;;;19.65;73.93
8229;BME280;4155;50.118;8.714;2022-08-02T01:58:26;100319.66;;;19.55;74.40
8229;BME280;4155;50.118;8.714;2022-08-02T02:00:58;100321.41;;;19.44;74.79
8229;BME280;4155;50.118;8.714;2022-08-02T02:03:28;100316.06;;;19.49;75.14
8229;BME280;4155;50.118;8.714;2022-08-02T02:06:00;100330.22;;;19.51;75.45
8229;BME280;4155;50.118;8.714;2022-08-02T02:08:32;100327.97;;;19.60;74.94
8229;BME280;4155;50.118;8.714;2022-08-02T02:11:02;100323.97;;;19.51;75.34
8229;BME280;4155;50.118;8.714;2022-08-02T02:13:51;100328.00;;;19.48;75.39
8229;BME280;4155;50.118;8.714;2022-08-02T02:16:21;100329.56;;;19.44;75.87
8229;BME280;4155;50.118;8.714;2022-08-02T02:18:51;100329.19;;;19.35;75.76
8229;BME280;4155;50.118;8.714;2022-08-02T02:21:19;100325.28;;;19.31;75.99
8229;BME280;4155;50.118;8.714;2022-08-02T02:23:47;100331.47;;;19.27;76.45
8229;BME280;4155;50.118;8.714;2022-08-02T02:26:17;100330.41;;;19.28;76.35
8229;BME280;4155;50.118;8.714;2022-08-02T02:28:58;100333.25;;;19.21;76.32
8229;BME280;4155;50.118;8.714;2022-08-02T02:31:33;100332.38;;;19.16;76.84
8229;BME280;4155;50.118;8.714;2022-08-02T02:34:02;100331.75;;;19.14;76.60
8229;BME280;4155;50.118;8.714;2022-08-02T02:36:32;100331.75;;;19.14;77.00
8229;BME280;4155;50.118;8.714;2022-08-02T02:39:02;100339.44;;;19.17;76.89
8229;BME280;4155;50.118;8.714;2022-08-02T02:41:39;100340.03;;;19.19;76.78
8229;BME280;4155;50.118;8.714;2022-08-02T02:44:10;100350.66;;;19.20;77.01
8229;BME280;4155;50.118;8.714;2022-08-02T02:46:41;100345.53;;;19.24;76.49
8229;BME280;4155;50.118;8.714;2022-08-02T02:49:11;100336.41;;;19.30;75.41
8229;BME280;4155;50.118;8.714;2022-08-02T02:51:39;100341.09;;;19.34;75.33
8229;BME280;4155;50.118;8.714;2022-08-02T02:54:10;100346.31;;;19.36;75.23
8229;BME280;4155;50.118;8.714;2022-08-02T02:56:59;100335.34;;;19.48;74.94
8229;BME280;4155;50.118;8.714;2022-08-02T02:59:27;100344.75;;;19.40;74.64
8229;BME280;4155;50.118;8.714;2022-08-02T03:01:57;100339.56;;;19.39;75.18
8229;BME280;4155;50.118;8.714;2022-08-02T03:04:27;100339.28;;;19.40;75.34
8229;BME280;4155;50.118;8.714;2022-08-02T03:07:14;100339.81;;;19.37;75.32
8229;BME280;4155;50.118;8.714;2022-08-02T03:09:42;100339.81;;;19.37;74.88
8229;BME280;4155;50.118;8.714;2022-08-02T03:12:16;100339.94;;;19.30;75.50
8229;BME280;4155;50.118;8.714;2022-08-02T03:14:45;100336.34;;;19.25;75.56
8229;BME280;4155;50.118;8.714;2022-08-02T03:17:16;100333.50;;;19.20;75.59
8229;BME280;4155;50.118;8.714;2022-08-02T03:19:44;100329.00;;;19.25;75.18
8229;BME280;4155;50.118;8.714;2022-08-02T03:22:12;100329.91;;;19.14;75.45
8229;BME280;4155;50.118;8.714;2022-08-02T03:24:40;100330.38;;;19.11;75.60
8229;BME280;4155;50.118;8.714;2022-08-02T03:27:07;100322.38;;;19.04;76.12
8229;BME280;4155;50.118;8.714;2022-08-02T03:29:35;100323.84;;;18.95;77.05
8229;BME280;4155;50.118;8.714;2022-08-02T03:32:03;100321.94;;;18.96;76.86
8229;BME280;4155;50.118;8.714;2022-08-02T03:34:32;100332.47;;;18.92;76.74
8229;BME280;4155;50.118;8.714;2022-08-02T03:37:01;100326.69;;;18.89;77.19
8229;BME280;4155;50.118;8.714;2022-08-02T03:39:30;100340.53;;;18.87;77.29
8229;BME280;4155;50.118;8.714;2022-08-02T03:41:58;100332.38;;;18.87;77.23
8229;BME280;4155;50.118;8.714;2022-08-02T03:44:27;100330.34;;;18.94;76.87
8229;BME280;4155;50.118;8.714;2022-08-02T03:46:55;100333.25;;;18.76;77.59
8229;BME280;4155;50.118;8.714;2022-08-02T03:49:24;100329.28;;;18.67;77.80
8229;BME280;4155;50.118;8.714;2022-08-02T03:51:53;100327.63;;;18.66;78.02
8229;BME280;4155;50.118;8.714;2022-08-02T03:54:22;100326.56;;;18.67;77.99
8229;BME280;4155;50.118;8.714;2022-08-02T03:57:10;100324.09;;;18.65;78.21
8229;BME280;4155;50.118;8.714;2022-08-02T03:59:41;100325.16;;;18.64;78.63
8229;BME280;4155;50.118;8.714;2022-08-02T04:02:10;100322.28;;;18.59;78.83
8229;BME280;4155;50.118;8.714;2022-08-02T04:04:38;100326.66;;;18.60;78.74
8229;BME280;4155;50.118;8.714;2022-08-02T04:07:07;100334.59;;;18.62;78.97
8229;BME280;4155;50.118;8.714;2022-08-02T04:09:35;100328.69;;;18.65;78.80
8229;BME280;4155;50.118;8.714;2022-08-02T04:12:03;100324.09;;;18.65;78.66
8229;BME280;4155;50.118;8.714;2022-08-02T04:14:31;100328.47;;;18.66;78.64
8229;BME280;4155;50.118;8.714;2022-08-02T04:17:05;100331.25;;;18.71;78.33
8229;BME280;4155;50.118;8.714;2022-08-02T04:19:38;100335.41;;;18.74;78.41
8229;BME280;4155;50.118;8.714;2022-08-02T04:22:13;100330.16;;;18.84;77.77
8229;BME280;4155;50.118;8.714;2022-08-02T04:24:47;100324.09;;;18.94;77.89
8229;BME280;4155;50.118;8.714;2022-08-02T04:27:16;100331.44;;;18.93;77.51
8229;BME280;4155;50.118;8.714;2022-08-02T04:30:07;100325.69;;;19.06;77.23
8229;BME280;4155;50.118;8.714;2022-08-02T04:32:35;100334.59;;;19.19;76.80
8229;BME280;4155;50.118;8.714;2022-08-02T04:35:05;100335.16;;;19.21;76.79
8229;BME280;4155;50.118;8.714;2022-08-02T04:37:50;100336.97;;;19.32;76.09
8229;BME280;4155;50.118;8.714;2022-08-02T04:40:36;100337.81;;;19.49;75.62
8229;BME280;4155;50.118;8.714;2022-08-02T04:43:04;100344.69;;;20.07;74.32
8229;BME280;4155;50.118;8.714;2022-08-02T04:45:32;100348.59;;;20.33;72.56
8229;BME280;4155;50.118;8.714;2022-08-02T04:47:59;100358.28;;;20.24;72.13
8229;BME280;4155;50.118;8.714;2022-08-02T04:50:32;100354.41;;;20.20;71.94
8229;BME280;4155;50.118;8.714;2022-08-02T04:53:01;100362.19;;;20.11;72.40
8229;BME280;4155;50.118;8.714;2022-08-02T04:55:28;100361.31;;;20.66;71.24
8229;BME280;4155;50.118;8.714;2022-08-02T04:57:56;100367.13;;;21.93;67.24
8229;BME280;4155;50.118;8.714;2022-08-02T05:00:25;100369.09;;;23.94;60.48
8229;BME280;4155;50.118;8.714;2022-08-02T05:02:54;100377.47;;;25.13;56.95
8229;BME280;4155;50.118;8.714;2022-08-02T05:05:22;100380.81;;;25.78;54.41
8229;BME280;4155;50.118;8.714;2022-08-02T05:07:50;100386.97;;;25.31;54.35
8229;BME280;4155;50.118;8.714;2022-08-02T05:10:20;100376.72;;;23.26;61.17
8229;BME280;4155;50.118;8.714;2022-08-02T05:12:47;100378.66;;;23.35;60.59
8229;BME280;4155;50.118;8.714;2022-08-02T05:15:15;100361.94;;;23.17;61.07
8229;BME280;4155;50.118;8.714;2022-08-02T05:17:44;100355.38;;;23.38;60.38
8229;BME280;4155;50.118;8.714;2022-08-02T05:20:14;100357.47;;;22.80;61.55
8229;BME280;4155;50.118;8.714;2022-08-02T05:22:42;100356.59;;;22.64;62.96
8229;BME280;4155;50.118;8.714;2022-08-02T05:25:10;100363.69;;;22.08;65.08
8229;BME280;4155;50.118;8.714;2022-08-02T05:27:39;100363.63;;;22.45;63.57
8229;BME280;4155;50.118;8.714;2022-08-02T05:30:08;100359.41;;;22.85;62.92
8229;BME280;4155;50.118;8.714;2022-08-02T05:32:42;100350.50;;;23.40;61.75
8229;BME280;4155;50.118;8.714;2022-08-02T05:35:10;100359.75;;;24.15;57.71
8229;BME280;4155;50.118;8.714;2022-08-02T05:37:38;100356.44;;;24.88;56.35
8229;BME280;4155;50.118;8.714;2022-08-02T05:40:08;100363.13;;;25.21;54.83
8229;BME280;4155;50.118;8.714;2022-08-02T05:42:40;100363.34;;;26.46;51.59
8229;BME280;4155;50.118;8.714;2022-08-02T05:45:08;100366.78;;;27.37;49.19
8229;BME280;4155;50.118;8.714;2022-08-02T05:47:36;100375.03;;;27.56;48.92
8229;BME280;4155;50.118;8.714;2022-08-02T05:50:05;100368.94;;;26.12;51.56
8229;BME280;4155;50.118;8.714;2022-08-02T05:52:41;100367.25;;;27.44;49.50
8229;BME280;4155;50.118;8.714;2022-08-02T05:55:15;100365.38;;;28.60;46.82
8229;BME280;4155;50.118;8.714;2022-08-02T05:57:51;100367.47;;;29.62;44.84
8229;BME280;4155;50.118;8.714;2022-08-02T06:00:20;100365.47;;;30.08;42.82
8229;BME280;4155;50.118;8.714;2022-08-02T06:03:02;100381.13;;;30.52;41.55
8229;BME280;4155;50.118;8.714;2022-08-02T06:05:38;100383.41;;;31.24;39.98
8229;BME280;4155;50.118;8.714;2022-08-02T06:08:07;100375.53;;;30.04;42.73
8229;BME280;4155;50.118;8.714;2022-08-02T06:10:36;100366.09;;;31.53;39.02
8229;BME280;4155;50.118;8.714;2022-08-02T06:13:08;100373.19;;;32.06;38.26
8229;BME280;4155;50.118;8.714;2022-08-02T06:15:40;100360.13;;;32.07;39.62
8229;BME280;4155;50.118;8.714;2022-08-02T06:18:19;100363.13;;;30.80;40.26
8229;BME280;4155;50.118;8.714;2022-08-02T06:20:55;100359.97;;;32.03;38.38
8229;BME280;4155;50.118;8.714;2022-08-02T06:23:44;100356.25;;;30.12;41.81
8229;BME280;4155;50.118;8.714;2022-08-02T06:26:25;100364.59;;;30.78;40.73
8229;BME280;4155;50.118;8.714;2022-08-02T06:28:56;100365.44;;;30.87;39.99
8229;BME280;4155;50.118;8.714;2022-08-02T06:31:24;100367.34;;;30.69;40.82
8229;BME280;4155;50.118;8.714;2022-08-02T06:33:52;100360.66;;;30.70;40.17
8229;BME280;4155;50.118;8.714;2022-08-02T06:36:26;100359.94;;;30.47;41.18
8229;BME280;4155;50.118;8.714;2022-08-02T06:39:02;100359.72;;;31.70;39.67
8229;BME280;4155;50.118;8.714;2022-08-02T06:41:37;100362.84;;;31.34;39.43
8229;BME280;4155;50.118;8.714;2022-08-02T06:44:07;100359.81;;;30.13;41.97
8229;BME280;4155;50.118;8.714;2022-08-02T06:46:55;100353.19;;;30.22;42.33
8229;BME280;4155;50.118;8.714;2022-08-02T06:49:38;100357.22;;;29.85;42.74
8229;BME280;4155;50.118;8.714;2022-08-02T06:52:22;100358.44;;;30.33;41.43
8229;BME280;4155;50.118;8.714;2022-08-02T06:54:56;100359.75;;;31.01;40.96
8229;BME280;4155;50.118;8.714;2022-08-02T06:57:24;100351.22;;;31.84;38.27
8229;BME280;4155;50.118;8.714;2022-08-02T06:59:53;100362.81;;;33.13;36.88
8229;BME280;4155;50.118;8.714;2022-08-02T07:02:21;100364.81;;;30.42;41.30
8229;BME280;4155;50.118;8.714;2022-08-02T07:04:49;100363.13;;;30.23;41.76
8229;BME280;4155;50.118;8.714;2022-08-02T07:07:17;100359.72;;;31.70;39.30
8229;BME280;4155;50.118;8.714;2022-08-02T07:09:45;100360.97;;;33.37;36.59
8229;BME280;4155;50.118;8.714;2022-08-02T07:12:27;100356.09;;;31.95;38.05
8229;BME280;4155;50.118;8.714;2022-08-02T07:14:57;100355.84;;;33.93;35.74
8229;BME280;4155;50.118;8.714;2022-08-02T07:17:25;100353.25;;;31.05;40.64
8229;BME280;4155;50.118;8.714;2022-08-02T07:19:53;100346.03;;;31.04;39.77
8229;BME280;4155;50.118;8.714;2022-08-02T07:22:20;100348.38;;;33.19;36.33
8229;BME280;4155;50.118;8.714;2022-08-02T07:24:50;100356.13;;;34.62;35.05
8229;BME280;4155;50.118;8.714;2022-08-02T07:27:18;100349.41;;;33.81;35.65
8229;BME280;4155;50.118;8.714;2022-08-02T07:29:46;100345.75;;;32.13;38.72
8229;BME280;4155;50.118;8.714;2022-08-02T07:32:16;100344.56;;;31.16;39.18
8229;BME280;4155;50.118;8.714;2022-08-02T07:34:45;100334.94;;;29.59;43.01
8229;BME280;4155;50.118;8.714;2022-08-02T07:37:18;100338.53;;;28.51;45.05
8229;BME280;4155;50.118;8.714;2022-08-02T07:40:06;100351.53;;;28.51;45.73
8229;BME280;4155;50.118;8.714;2022-08-02T07:42:41;100348.78;;;28.87;44.90
8229;BME280;4155;50.118;8.714;2022-08-02T07:45:09;100348.63;;;29.20;43.84
8229;BME280;4155;50.118;8.714;2022-08-02T07:47:39;100356.44;;;30.81;41.21
8229;BME280;4155;50.118;8.714;2022-08-02T07:50:08;100341.72;;;30.07;41.82
8229;BME280;4155;50.118;8.714;2022-08-02T07:52:38;100339.09;;;30.50;41.42
8229;BME280;4155;50.118;8.714;2022-08-02T07:55:06;100353.72;;;31.07;40.16
8229;BME280;4155;50.118;8.714;2022-08-02T07:57:34;100349.59;;;31.74;38.64
8229;BME280;4155;50.118;8.714;2022-08-02T08:00:06;100347.88;;;32.08;38.92
8229;BME280;4155;50.118;8.714;2022-08-02T08:02:34;100348.16;;;33.03;37.05
8229;BME280;4155;50.118;8.714;2022-08-02T08:05:05;100334.44;;;33.61;36.22
8229;BME280;4155;50.118;8.714;2022-08-02T08:07:33;100332.91;;;32.38;34.68
8229;BME280;4155;50.118;8.714;2022-08-02T08:10:02;100333.59;;;32.27;34.88
8229;BME280;4155;50.118;8.714;2022-08-02T08:12:30;100334.69;;;30.01;38.11
8229;BME280;4155;50.118;8.714;2022-08-02T08:14:58;100335.09;;;29.85;38.25
8229;BME280;4155;50.118;8.714;2022-08-02T08:17:25;100327.88;;;28.17;40.52
8229;BME280;4155;50.118;8.714;2022-08-02T08:19:53;100334.16;;;30.87;36.96
8229;BME280;4155;50.118;8.714;2022-08-02T08:22:22;100330.91;;;32.01;35.68
8229;BME280;4155;50.118;8.714;2022-08-02T08:24:49;100327.59;;;32.54;35.03
8229;BME280;4155;50.118;8.714;2022-08-02T08:27:18;100339.53;;;32.96;34.71
8229;BME280;4155;50.118;8.714;2022-08-02T08:29:48;100325.25;;;31.88;36.58
8229;BME280;4155;50.118;8.714;2022-08-02T08:32:16;100329.13;;;31.06;36.36
8229;BME280;4155;50.118;8.714;2022-08-02T08:34:45;100334.47;;;30.28;37.93
8229;BME280;4155;50.118;8.714;2022-08-02T08:37:13;100328.19;;;29.74;38.94
8229;BME280;4155;50.118;8.714;2022-08-02T08:39:45;100337.25;;;30.28;38.80
8229;BME280;4155;50.118;8.714;2022-08-02T08:42:24;100343.56;;;31.81;35.52
8229;BME280;4155;50.118;8.714;2022-08-02T08:44:53;100339.81;;;32.23;35.33
8229;BME280;4155;50.118;8.714;2022-08-02T08:47:22;100334.78;;;32.76;34.60
8229;BME280;4155;50.118;8.714;2022-08-02T08:49:51;100336.59;;;33.34;33.13
8229;BME280;4155;50.118;8.714;2022-08-02T08:52:22;100332.63;;;31.76;35.55
8229;BME280;4155;50.118;8.714;2022-08-02T08:54:53;100328.44;;;31.09;35.60
8229;BME280;4155;50.118;8.714;2022-08-02T08:57:26;100332.16;;;31.65;34.21
8229;BME280;4155;50.118;8.714;2022-08-02T08:59:57;100322.84;;;31.78;35.15
8229;BME280;4155;50.118;8.714;2022-08-02T09:02:25;100329.72;;;32.10;34.94
8229;BME280;4155;50.118;8.714;2022-08-02T09:04:54;100324.69;;;32.12;34.46
8229;BME280;4155;50.118;8.714;2022-08-02T09:07:22;100318.34;;;31.30;35.63
8229;BME280;4155;50.118;8.714;2022-08-02T09:09:49;100318.50;;;30.65;36.96
8229;BME280;4155;50.118;8.714;2022-08-02T09:12:19;100322.84;;;30.57;37.23
8229;BME280;4155;50.118;8.714;2022-08-02T09:14:50;100320.13;;;29.55;38.67
8229;BME280;4155;50.118;8.714;2022-08-02T09:17:18;100312.69;;;29.42;39.97
8229;BME280;4155;50.118;8.714;2022-08-02T09:20:05;100316.34;;;27.88;41.56
8229;BME280;4155;50.118;8.714;2022-08-02T09:22:32;100320.13;;;28.47;40.78
8229;BME280;4155;50.118;8.714;2022-08-02T09:25:00;100316.53;;;28.60;39.87
8229;BME280;4155;50.118;8.714;2022-08-02T09:27:34;100312.88;;;29.01;39.04
8229;BME280;4155;50.118;8.714;2022-08-02T09:30:03;100315.00;;;27.20;40.56
8229;BME280;4155;50.118;8.714;2022-08-02T09:32:43;100325.91;;;27.77;39.48
8229;BME280;4155;50.118;8.714;2022-08-02T09:35:11;100321.25;;;28.46;39.55
8229;BME280;4155;50.118;8.714;2022-08-02T09:37:41;100320.84;;;27.32;39.94
8229;BME280;4155;50.118;8.714;2022-08-02T09:40:14;100317.22;;;26.99;39.77
8229;BME280;4155;50.118;8.714;2022-08-02T09:42:56;100318.47;;;26.88;41.23
8229;BME280;4155;50.118;8.714;2022-08-02T09:45:29;100320.31;;;27.49;40.81
8229;BME280;4155;50.118;8.714;2022-08-02T09:47:57;100318.16;;;27.79;40.54
8229;BME280;4155;50.118;8.714;2022-08-02T09:50:24;100316.53;;;28.05;39.64
8229;BME280;4155;50.118;8.714;2022-08-02T09:52:54;100320.00;;;28.24;37.47
8229;BME280;4155;50.118;8.714;2022-08-02T09:55:23;100316.75;;;28.36;38.49
8229;BME280;4155;50.118;8.714;2022-08-02T09:57:52;100317.59;;;28.50;37.94
8229;BME280;4155;50.118;8.714;2022-08-02T10:00:20;100307.94;;;28.07;37.69
8229;BME280;4155;50.118;8.714;2022-08-02T10:03:06;100297.47;;;28.36;38.23
8229;BME280;4155;50.118;8.714;2022-08-02T10:05:47;100306.44;;;28.28;38.05
8229;BME280;4155;50.118;8.714;2022-08-02T10:08:22;100311.31;;;28.72;37.50
8229;BME280;4155;50.118;8.714;2022-08-02T10:10:51;100307.59;;;29.13;37.25
8229;BME280;4155;50.118;8.714;2022-08-02T10:13:29;100297.56;;;29.17;36.36
8229;BME280;4155;50.118;8.714;2022-08-02T10:15:57;100308.56;;;29.53;36.83
8229;BME280;4155;50.118;8.714;2022-08-02T10:18:24;100302.88;;;29.50;36.33
8229;BME280;4155;50.118;8.714;2022-08-02T10:21:12;100289.50;;;28.85;36.11
8229;BME280;4155;50.118;8.714;2022-08-02T10:23:43;100282.22;;;28.25;37.08
8229;BME280;4155;50.118;8.714;2022-08-02T10:26:16;100280.41;;;28.70;36.77
8229;BME280;4155;50.118;8.714;2022-08-02T10:28:47;100281.81;;;28.81;37.00
8229;BME280;4155;50.118;8.714;2022-08-02T10:31:18;100276.13;;;29.14;35.66
8229;BME280;4155;50.118;8.714;2022-08-02T10:33:48;100284.66;;;29.26;35.58
8229;BME280;4155;50.118;8.714;2022-08-02T10:36:19;100277.78;;;29.24;35.30
8229;BME280;4155;50.118;8.714;2022-08-02T10:38:49;100279.88;;;29.18;34.60
8229;BME280;4155;50.118;8.714;2022-08-02T10:41:45;100279.53;;;29.42;34.49
8229;BME280;4155;50.118;8.714;2022-08-02T10:44:22;100266.16;;;29.58;35.48
8229;BME280;4155;50.118;8.714;2022-08-02T10:46:52;100261.84;;;29.74;34.98
8229;BME280;4155;50.118;8.714;2022-08-02T10:49:20;100270.63;;;29.76;34.79
8229;BME280;4155;50.118;8.714;2022-08-02T10:52:08;100269.78;;;29.67;34.60
8229;BME280;4155;50.118;8.714;2022-08-02T10:54:38;100254.69;;;29.73;33.56
8229;BME280;4155;50.118;8.714;2022-08-02T10:57:18;100258.34;;;29.91;33.87
8229;BME280;4155;50.118;8.714;2022-08-02T10:59:48;100246.88;;;29.75;33.61
8229;BME280;4155;50.118;8.714;2022-08-02T11:02:34;100250.78;;;29.74;34.47
8229;BME280;4155;50.118;8.714;2022-08-02T11:05:06;100256.31;;;29.74;33.89
8229;BME280;4155;50.118;8.714;2022-08-02T11:07:36;100247.84;;;29.71;34.82
8229;BME280;4155;50.118;8.714;2022-08-02T11:10:27;100250.44;;;30.07;34.78
8229;BME280;4155;50.118;8.714;2022-08-02T11:13:00;100245.00;;;30.41;33.32
8229;BME280;4155;50.118;8.714;2022-08-02T11:15:47;100233.75;;;30.55;33.30
8229;BME280;4155;50.118;8.714;2022-08-02T11:18:14;100233.44;;;30.57;32.27
8229;BME280;4155;50.118;8.714;2022-08-02T11:20:42;100226.09;;;30.35;33.68
8229;BME280;4155;50.118;8.714;2022-08-02T11:23:32;100232.19;;;30.06;33.35
8229;BME280;4155;50.118;8.714;2022-08-02T11:26:43;100222.03;;;30.32;32.60
8229;BME280;4155;50.118;8.714;2022-08-02T11:29:12;100230.13;;;30.29;32.67
8229;BME280;4155;50.118;8.714;2022-08-02T11:31:44;100235.84;;;30.32;32.90
8229;BME280;4155;50.118;8.714;2022-08-02T11:34:11;100220.19;;;30.10;33.04
8229;BME280;4155;50.118;8.714;2022-08-02T11:36:59;100219.59;;;30.31;33.33
8229;BME280;4155;50.118;8.714;2022-08-02T11:39:27;100224.13;;;30.27;32.50
8229;BME280;4155;50.118;8.714;2022-08-02T11:41:57;100222.63;;;30.12;32.49
8229;BME280;4155;50.118;8.714;2022-08-02T11:44:27;100217.78;;;29.86;33.54
8229;BME280;4155;50.118;8.714;2022-08-02T11:46:57;100217.91;;;30.12;32.71
8229;BME280;4155;50.118;8.714;2022-08-02T11:49:26;100226.47;;;30.02;32.49
8229;BME280;4155;50.118;8.714;2022-08-02T11:51:57;100213.81;;;29.61;33.31
8229;BME280;4155;50.118;8.714;2022-08-02T11:54:29;100217.44;;;29.71;33.33
8229;BME280;4155;50.118;8.714;2022-08-02T11:57:09;100223.44;;;30.12;32.92
8229;BME280;4155;50.118;8.714;2022-08-02T11:59:45;100215.63;;;30.14;32.81
8229;BME280;4155;50.118;8.714;2022-08-02T12:02:15;100216.31;;;30.37;32.71
8229;BME280;4155;50.118;8.714;2022-08-02T12:04:51;100216.38;;;29.98;32.91
8229;BME280;4155;50.118;8.714;2022-08-02T12:07:27;100216.19;;;29.94;33.29
8229;BME280;4155;50.118;8.714;2022-08-02T12:10:02;100219.31;;;30.01;33.21
8229;BME280;4155;50.118;8.714;2022-08-02T12:12:31;100211.88;;;30.19;33.00
8229;BME280;4155;50.118;8.714;2022-08-02T12:14:59;100202.63;;;30.41;33.29
8229;BME280;4155;50.118;8.714;2022-08-02T12:17:28;100202.81;;;30.44;33.02
8229;BME280;4155;50.118;8.714;2022-08-02T12:20:13;100199.41;;;30.56;31.72
8229;BME280;4155;50.118;8.714;2022-08-02T12:22:42;100202.34;;;30.77;32.78
8229;BME280;4155;50.118;8.714;2022-08-02T12:25:18;100206.69;;;31.04;32.20
8229;BME280;4155;50.118;8.714;2022-08-02T12:28:14;100208.66;;;31.21;32.25
8229;BME280;4155;50.118;8.714;2022-08-02T12:30:51;100207.50;;;31.30;31.22
8229;BME280;4155;50.118;8.714;2022-08-02T12:33:21;100210.22;;;31.48;31.17
8229;BME280;4155;50.118;8.714;2022-08-02T12:35:50;100208.84;;;31.62;31.43
8229;BME280;4155;50.118;8.714;2022-08-02T12:38:18;100195.84;;;31.46;30.71
8229;BME280;4155;50.118;8.714;2022-08-02T12:40:46;100194.47;;;31.22;31.62
8229;BME280;4155;50.118;8.714;2022-08-02T12:43:19;100200.84;;;30.28;31.60
8229;BME280;4155;50.118;8.714;2022-08-02T12:45:51;100195.81;;;30.73;31.72
8229;BME280;4155;50.118;8.714;2022-08-02T12:48:31;100202.50;;;30.72;31.78
8229;BME280;4155;50.118;8.714;2022-08-02T12:51:17;100197.63;;;30.77;32.20
8229;BME280;4155;50.118;8.714;2022-08-02T12:53:45;100192.72;;;30.57;31.66
8229;BME280;4155;50.118;8.714;2022-08-02T12:56:26;100189.66;;;30.67;31.76
8229;BME280;4155;50.118;8.714;2022-08-02T12:58:54;100179.53;;;30.71;32.10
8229;BME280;4155;50.118;8.714;2022-08-02T13:01:24;100191.06;;;30.99;31.59
8229;BME280;4155;50.118;8.714;2022-08-02T13:03:54;100184.91;;;30.76;30.32
8229;BME280;4155;50.118;8.714;2022-08-02T13:06:37;100180.44;;;31.19;31.41
8229;BME280;4155;50.118;8.714;2022-08-02T13:09:11;100177.25;;;31.46;31.12
8229;BME280;4155;50.118;8.714;2022-08-02T13:11:39;100177.34;;;31.29;30.94
8229;BME280;4155;50.118;8.714;2022-08-02T13:14:09;100178.00;;;31.64;31.04
8229;BME280;4155;50.118;8.714;2022-08-02T13:16:36;100176.53;;;31.28;30.26
8229;BME280;4155;50.118;8.714;2022-08-02T13:19:05;100186.63;;;31.16;30.37
8229;BME280;4155;50.118;8.714;2022-08-02T13:21:33;100181.84;;;31.42;30.82
8229;BME280;4155;50.118;8.714;2022-08-02T13:24:21;100180.38;;;31.45;29.75
8229;BME280;4155;50.118;8.714;2022-08-02T13:27:07;100169.16;;;31.71;29.69
8229;BME280;4155;50.118;8.714;2022-08-02T13:29:35;100175.19;;;31.73;30.88
8229;BME280;4155;50.118;8.714;2022-08-02T13:32:03;100170.31;;;31.31;29.29
8229;BME280;4155;50.118;8.714;2022-08-02T13:34:32;100175.56;;;31.62;30.11
8229;BME280;4155;50.118;8.714;2022-08-02T13:37:00;100162.66;;;31.28;29.75